createdAt,value
2022-12-20T00:01:32.807Z,31.20
2022-12-20T00:04:05.772Z,29.85
2022-12-20T00:06:35.318Z,30.77
2022-12-20T00:09:05.279Z,29.48
2022-12-20T00:11:32.373Z,31.70
2022-12-20T00:13:59.466Z,30.65
2022-12-20T00:16:28.425Z,31.02
2022-12-20T00:18:58.279Z,31.63
2022-12-20T00:21:26.127Z,28.85
2022-12-20T00:23:53.626Z,30.98
2022-12-20T00:26:23.830Z,32.10
2022-12-20T00:28:52.864Z,31.23
2022-12-20T00:31:21.595Z,31.30
2022-12-20T00:33:50.543Z,31.73
2022-12-20T00:36:18.984Z,31.38
2022-12-20T00:38:48.567Z,32.17
2022-12-20T00:41:19.225Z,29.02
2022-12-20T00:43:46.689Z,33.08
2022-12-20T00:46:15.248Z,30.17
2022-12-20T00:48:42.575Z,31.50
2022-12-20T00:51:21.287Z,32.17
2022-12-20T00:53:48.710Z,32.83
2022-12-20T00:56:17.420Z,33.85
2022-12-20T00:58:45.029Z,31.17
2022-12-20T01:01:41.784Z,31.70
2022-12-20T01:04:08.934Z,32.88
2022-12-20T01:06:37.235Z,31.75
2022-12-20T01:09:05.307Z,33.30
2022-12-20T01:11:37.674Z,32.80
2022-12-20T01:14:10.545Z,31.15
2022-12-20T01:16:41.591Z,31.23
2022-12-20T01:19:11.162Z,31.92
2022-12-20T01:21:44.356Z,29.73
2022-12-20T01:24:17.019Z,30.70
2022-12-20T01:26:44.597Z,32.42
2022-12-20T01:29:12.199Z,30.65
2022-12-20T01:31:39.291Z,32.50
2022-12-20T01:34:06.806Z,30.48
2022-12-20T01:36:35.700Z,31.27
2022-12-20T01:39:06.572Z,32.92
2022-12-20T01:41:34.748Z,30.55
2022-12-20T01:44:26.311Z,29.33
2022-12-20T01:46:54.695Z,32.10
2022-12-20T01:49:28.760Z,31.98
2022-12-20T01:52:21.724Z,32.58
2022-12-20T01:55:04.393Z,30.55
2022-12-20T01:58:01.263Z,30.23
2022-12-20T02:00:29.565Z,31.30
2022-12-20T02:03:00.848Z,28.92
2022-12-20T02:05:28.026Z,30.58
2022-12-20T02:07:57.442Z,30.60
2022-12-20T02:10:29.897Z,31.77
2022-12-20T02:13:11.659Z,29.77
2022-12-20T02:15:38.614Z,31.38
2022-12-20T02:18:27.621Z,29.88
2022-12-20T02:21:06.064Z,32.40
2022-12-20T02:23:43.176Z,30.05
2022-12-20T02:26:42.181Z,31.02
2022-12-20T02:29:35.838Z,31.60
2022-12-20T02:32:20.134Z,32.90
2022-12-20T02:34:47.340Z,31.60
2022-12-20T02:37:14.818Z,31.83
2022-12-20T02:39:44.860Z,32.50
2022-12-20T02:42:15.425Z,32.05
2022-12-20T02:45:16.514Z,33.70
2022-12-20T02:47:52.552Z,32.38
2022-12-20T02:50:38.403Z,31.77
2022-12-20T02:53:07.417Z,32.88
2022-12-20T02:55:46.123Z,32.25
2022-12-20T02:58:25.612Z,30.02
2022-12-20T03:00:56.775Z,30.70
2022-12-20T03:03:24.382Z,31.95
2022-12-20T03:05:54.708Z,30.73
2022-12-20T03:08:23.731Z,30.70
2022-12-20T03:10:52.315Z,29.95
2022-12-20T03:13:20.556Z,31.58
2022-12-20T03:15:56.391Z,32.22
2022-12-20T03:18:23.759Z,31.50
2022-12-20T03:20:50.956Z,32.72
2022-12-20T03:23:18.011Z,30.52
2022-12-20T03:25:45.081Z,32.60
2022-12-20T03:28:19.929Z,34.15
2022-12-20T03:30:47.888Z,34.88
2022-12-20T03:33:15.046Z,33.50
2022-12-20T03:35:43.107Z,31.80
2022-12-20T03:38:10.862Z,33.72
2022-12-20T03:40:38.220Z,30.58
2022-12-20T03:43:05.470Z,31.00
2022-12-20T03:45:32.558Z,34.50
2022-12-20T03:47:59.585Z,30.88
2022-12-20T03:50:29.110Z,31.23
2022-12-20T03:52:56.153Z,31.92
2022-12-20T03:55:23.299Z,35.45
2022-12-20T03:57:50.705Z,32.22
2022-12-20T04:00:28.434Z,33.30
2022-12-20T04:03:10.616Z,35.50
2022-12-20T04:05:37.988Z,36.55
2022-12-20T04:08:07.017Z,34.63
2022-12-20T04:10:54.049Z,32.50
2022-12-20T04:13:21.113Z,31.00
2022-12-20T04:15:48.347Z,32.47
2022-12-20T04:18:16.444Z,32.60
2022-12-20T04:20:44.351Z,32.10
2022-12-20T04:23:20.324Z,32.22
2022-12-20T04:25:48.633Z,33.25
2022-12-20T04:28:17.245Z,30.55
2022-12-20T04:30:45.271Z,30.23
2022-12-20T04:33:15.637Z,30.23
2022-12-20T04:35:43.371Z,31.92
2022-12-20T04:38:10.491Z,30.73
2022-12-20T04:40:37.828Z,31.70
2022-12-20T04:43:07.501Z,32.05
2022-12-20T04:45:34.948Z,34.00
2022-12-20T04:48:28.543Z,31.10
2022-12-20T04:50:50.500Z,33.45
2022-12-20T04:53:36.585Z,32.33
2022-12-20T04:56:03.837Z,33.75
2022-12-20T04:58:31.839Z,34.10
2022-12-20T05:01:00.030Z,34.85
2022-12-20T05:03:32.326Z,32.50
2022-12-20T05:05:59.555Z,33.05
2022-12-20T05:08:26.907Z,33.25
2022-12-20T05:10:54.053Z,35.58
2022-12-20T05:13:21.838Z,33.08
2022-12-20T05:15:56.494Z,31.63
2022-12-20T05:18:28.174Z,35.22
2022-12-20T05:21:19.829Z,35.72
2022-12-20T05:24:08.217Z,32.17
2022-12-20T05:26:48.969Z,33.55
2022-12-20T05:29:18.036Z,32.72
2022-12-20T05:31:45.273Z,34.03
2022-12-20T05:34:12.696Z,34.65
2022-12-20T05:36:41.487Z,33.92
2022-12-20T05:39:08.836Z,35.03
2022-12-20T05:41:40.668Z,33.72
2022-12-20T05:44:08.961Z,34.40
2022-12-20T05:46:38.991Z,36.43
2022-12-20T05:49:11.325Z,33.63
2022-12-20T05:51:38.517Z,32.75
2022-12-20T05:54:25.636Z,34.85
2022-12-20T05:57:11.472Z,40.67
2022-12-20T05:59:40.897Z,37.78
2022-12-20T06:02:15.412Z,34.58
2022-12-20T06:04:43.569Z,34.75
2022-12-20T06:07:20.031Z,34.83
2022-12-20T06:09:50.440Z,37.60
2022-12-20T06:12:19.769Z,36.42
2022-12-20T06:14:47.857Z,35.50
2022-12-20T06:17:15.015Z,35.72
2022-12-20T06:19:42.588Z,34.65
2022-12-20T06:22:11.495Z,34.25
2022-12-20T06:24:55.342Z,34.47
2022-12-20T06:27:26.517Z,34.88
2022-12-20T06:30:15.013Z,37.05
2022-12-20T06:33:05.291Z,34.47
2022-12-20T06:35:32.349Z,35.30
2022-12-20T06:38:00.046Z,32.72
2022-12-20T06:40:30.014Z,34.88
2022-12-20T06:43:00.357Z,36.97
2022-12-20T06:45:28.029Z,34.25
2022-12-20T06:47:57.094Z,35.50
2022-12-20T06:50:24.900Z,37.10
2022-12-20T06:52:52.149Z,34.53
2022-12-20T06:55:19.232Z,34.28
2022-12-20T06:57:47.000Z,34.15
2022-12-20T07:00:15.622Z,35.47
2022-12-20T07:02:42.786Z,34.95
2022-12-20T07:05:13.568Z,35.80
2022-12-20T07:07:50.241Z,33.42
2022-12-20T07:10:22.307Z,35.72
2022-12-20T07:12:58.333Z,38.85
2022-12-20T07:15:33.270Z,41.75
2022-12-20T07:18:30.251Z,36.50
2022-12-20T07:21:05.540Z,35.25
2022-12-20T07:23:41.040Z,33.28
2022-12-20T07:26:14.091Z,35.92
2022-12-20T07:28:47.079Z,36.33
2022-12-20T07:31:32.504Z,35.47
2022-12-20T07:34:00.128Z,35.97
2022-12-20T07:36:43.091Z,33.72
2022-12-20T07:39:28.036Z,34.17
2022-12-20T07:42:03.708Z,32.10
2022-12-20T07:44:44.288Z,35.53
2022-12-20T07:47:30.088Z,35.28
2022-12-20T07:50:07.219Z,36.08
2022-12-20T07:52:43.314Z,35.95
2022-12-20T07:55:12.432Z,36.85
2022-12-20T07:58:00.010Z,38.78
2022-12-20T08:00:30.358Z,33.42
2022-12-20T08:03:07.414Z,36.10
2022-12-20T08:05:42.089Z,35.65
2022-12-20T08:08:10.225Z,39.20
2022-12-20T08:10:44.955Z,33.92
2022-12-20T08:13:16.465Z,37.30
2022-12-20T08:15:46.326Z,35.08
2022-12-20T08:18:16.527Z,33.30
2022-12-20T08:21:08.049Z,37.25
2022-12-20T08:26:15.249Z,35.35
2022-12-20T08:28:46.303Z,32.80
2022-12-20T08:31:16.273Z,32.03
2022-12-20T08:33:49.191Z,34.72
2022-12-20T08:36:20.656Z,36.90
2022-12-20T08:38:51.192Z,35.80
2022-12-20T08:41:29.500Z,36.75
2022-12-20T08:43:59.804Z,36.95
2022-12-20T08:46:40.842Z,34.20
2022-12-20T08:49:11.021Z,34.30
2022-12-20T08:51:41.643Z,32.72
2022-12-20T08:54:24.693Z,35.60
2022-12-20T08:57:03.967Z,33.97
2022-12-20T09:00:00.761Z,34.65
2022-12-20T09:02:34.162Z,38.67
2022-12-20T09:05:05.889Z,35.85
2022-12-20T09:07:44.426Z,34.65
2022-12-20T09:10:17.918Z,34.92
2022-12-20T09:12:51.220Z,34.08
2022-12-20T09:15:28.025Z,35.85
2022-12-20T09:18:18.174Z,34.15
2022-12-20T09:20:51.562Z,35.03
2022-12-20T09:23:34.179Z,34.53
2022-12-20T09:26:23.762Z,35.85
2022-12-20T09:29:03.083Z,34.35
2022-12-20T09:31:35.657Z,37.00
2022-12-20T09:34:12.691Z,37.00
2022-12-20T09:36:45.416Z,25.60
2022-12-20T09:39:19.539Z,34.15
2022-12-20T09:42:04.760Z,36.05
2022-12-20T09:45:00.581Z,33.30
2022-12-20T09:47:36.598Z,33.22
2022-12-20T09:50:28.111Z,37.53
2022-12-20T09:56:26.870Z,36.97
2022-12-20T09:59:25.406Z,40.58
2022-12-20T10:01:56.848Z,37.15
2022-12-20T10:04:34.648Z,37.90
2022-12-20T10:07:43.898Z,38.58
2022-12-20T10:10:49.563Z,36.95
2022-12-20T10:13:42.655Z,36.10
2022-12-20T10:16:42.113Z,34.85
2022-12-20T10:19:35.163Z,37.15
2022-12-20T10:22:40.102Z,34.15
2022-12-20T10:25:25.444Z,35.67
2022-12-20T10:28:10.246Z,36.85
2022-12-20T10:30:42.697Z,35.92
2022-12-20T10:33:28.917Z,35.42
2022-12-20T10:36:52.275Z,38.10
2022-12-20T10:39:55.312Z,34.17
2022-12-20T10:42:49.907Z,36.70
2022-12-20T10:45:22.559Z,34.60
2022-12-20T10:48:05.288Z,34.83
2022-12-20T10:50:40.493Z,35.75
2022-12-20T10:53:32.372Z,34.97
2022-12-20T10:56:29.554Z,34.88
2022-12-20T10:59:21.545Z,36.22
2022-12-20T11:05:10.910Z,34.90
2022-12-20T11:08:37.773Z,33.40
2022-12-20T11:11:20.200Z,30.70
2022-12-20T11:13:57.795Z,35.20
2022-12-20T11:16:39.243Z,32.17
2022-12-20T11:19:44.186Z,32.53
2022-12-20T11:22:42.070Z,32.58
2022-12-20T11:26:15.899Z,33.75
2022-12-20T11:29:19.028Z,35.08
2022-12-20T11:32:24.731Z,33.33
2022-12-20T11:35:17.540Z,33.80
2022-12-20T11:38:09.711Z,32.28
2022-12-20T11:41:28.321Z,32.33
2022-12-20T11:44:26.222Z,33.10
2022-12-20T11:47:05.848Z,32.10
2022-12-20T11:49:48.471Z,33.38
2022-12-20T11:52:33.236Z,33.65
2022-12-20T11:55:16.251Z,33.20
2022-12-20T11:58:20.776Z,31.92
2022-12-20T12:01:13.143Z,37.00
2022-12-20T12:03:50.822Z,35.40
2022-12-20T12:07:06.787Z,34.88
2022-12-20T12:10:08.360Z,34.13
2022-12-20T12:13:06.397Z,35.28
2022-12-20T12:16:05.381Z,35.65
2022-12-20T12:18:48.315Z,32.92
2022-12-20T12:21:42.533Z,33.58
2022-12-20T12:24:53.930Z,36.42
2022-12-20T12:27:30.487Z,35.10
2022-12-20T12:30:12.695Z,35.70
2022-12-20T12:33:25.446Z,33.92
2022-12-20T12:36:22.332Z,33.92
2022-12-20T12:39:18.449Z,34.42
2022-12-20T12:42:06.728Z,34.47
2022-12-20T12:44:48.848Z,32.60
2022-12-20T12:47:39.402Z,32.88
2022-12-20T12:50:38.548Z,30.48
2022-12-20T12:53:37.532Z,31.80
2022-12-20T12:56:46.117Z,32.65
2022-12-20T12:59:35.166Z,32.60
2022-12-20T13:02:07.151Z,31.45
2022-12-20T13:05:30.952Z,31.02
2022-12-20T13:08:08.735Z,31.80
2022-12-20T13:10:39.014Z,29.85
2022-12-20T13:13:34.642Z,30.57
2022-12-20T13:16:19.625Z,30.52
2022-12-20T13:19:01.086Z,32.15
2022-12-20T13:21:38.784Z,30.08
2022-12-20T13:24:55.966Z,32.75
2022-12-20T13:27:50.063Z,30.55
2022-12-20T13:30:36.684Z,30.73
2022-12-20T13:33:45.684Z,28.23
2022-12-20T13:36:34.548Z,30.42
2022-12-20T13:39:24.411Z,30.52
2022-12-20T13:42:17.490Z,29.17
2022-12-20T13:44:54.876Z,30.73
2022-12-20T13:47:37.307Z,32.55
2022-12-20T13:50:41.141Z,31.20
2022-12-20T13:53:24.819Z,32.70
2022-12-20T13:55:57.703Z,32.92
2022-12-20T13:58:35.296Z,34.38
2022-12-20T14:01:19.005Z,32.55
2022-12-20T14:03:50.772Z,30.65
2022-12-20T14:06:26.964Z,32.22
2022-12-20T14:08:56.976Z,28.15
2022-12-20T14:11:27.238Z,32.08
2022-12-20T14:14:10.009Z,31.17
2022-12-20T14:16:40.577Z,31.48
2022-12-20T14:19:17.309Z,31.40
2022-12-20T14:21:46.509Z,33.33
2022-12-20T14:24:22.070Z,32.33
2022-12-20T14:26:53.919Z,29.80
2022-12-20T14:29:29.259Z,33.17
2022-12-20T14:32:09.727Z,30.58
2022-12-20T14:34:54.751Z,30.48
2022-12-20T14:37:35.243Z,30.90
2022-12-20T14:40:11.922Z,30.98
2022-12-20T14:42:50.955Z,30.88
2022-12-20T14:45:29.258Z,33.78
2022-12-20T14:48:10.967Z,32.15
2022-12-20T14:50:51.429Z,32.08
2022-12-20T14:53:35.952Z,31.17
2022-12-20T14:56:08.229Z,28.30
2022-12-20T14:58:44.701Z,31.13
2022-12-20T15:01:25.146Z,31.77
2022-12-20T15:03:59.037Z,30.53
2022-12-20T15:06:51.151Z,30.08
2022-12-20T15:09:25.331Z,32.17
2022-12-20T15:11:57.078Z,30.83
2022-12-20T15:14:41.251Z,30.27
2022-12-20T15:17:16.159Z,29.95
2022-12-20T15:19:44.115Z,28.75
2022-12-20T15:22:30.732Z,30.20
2022-12-20T15:24:58.708Z,27.60
2022-12-20T15:27:26.374Z,30.77
2022-12-20T15:29:54.204Z,29.70
2022-12-20T15:32:30.112Z,30.80
2022-12-20T15:34:57.847Z,31.48
2022-12-20T15:37:31.040Z,32.45
2022-12-20T15:40:07.051Z,32.00
2022-12-20T15:42:37.844Z,33.70
2022-12-20T15:45:15.018Z,31.98
2022-12-20T15:47:50.228Z,29.65
2022-12-20T15:50:24.161Z,31.38
2022-12-20T15:52:54.565Z,32.50
2022-12-20T15:55:34.359Z,29.17
2022-12-20T15:58:10.117Z,31.25
2022-12-20T16:00:43.765Z,31.00
2022-12-20T16:03:26.950Z,29.90
2022-12-20T16:05:56.725Z,30.70
2022-12-20T16:08:24.611Z,32.95
2022-12-20T16:11:00.539Z,34.45
2022-12-20T16:13:28.239Z,32.97
2022-12-20T16:16:04.074Z,30.48
2022-12-20T16:18:35.204Z,28.13
2022-12-20T16:21:12.423Z,32.10
2022-12-20T16:23:50.189Z,29.23
2022-12-20T16:26:22.548Z,30.77
2022-12-20T16:28:51.889Z,31.38
2022-12-20T16:31:33.380Z,30.58
2022-12-20T16:34:17.556Z,30.85
2022-12-20T16:36:46.379Z,29.73
2022-12-20T16:39:13.519Z,33.03
2022-12-20T16:41:43.677Z,31.23
2022-12-20T16:44:17.247Z,34.42
2022-12-20T16:46:45.824Z,30.67
2022-12-20T16:49:19.712Z,31.48
2022-12-20T16:51:49.158Z,33.80
2022-12-20T16:54:21.780Z,30.70
2022-12-20T16:56:55.308Z,29.05
2022-12-20T16:59:23.912Z,29.95
2022-12-20T17:01:56.313Z,31.05
2022-12-20T17:04:24.329Z,32.53
2022-12-20T17:06:51.437Z,34.30
2022-12-20T17:09:20.193Z,33.30
2022-12-20T17:11:47.977Z,31.60
2022-12-20T17:14:15.045Z,30.98
2022-12-20T17:16:42.628Z,30.80
2022-12-20T17:19:10.874Z,32.67
2022-12-20T17:24:29.812Z,28.98
2022-12-20T17:26:56.965Z,31.55
2022-12-20T17:29:23.990Z,31.02
2022-12-20T17:31:51.309Z,31.02
2022-12-20T17:34:27.253Z,29.27
2022-12-20T17:36:56.793Z,31.48
2022-12-20T17:39:25.497Z,31.35
2022-12-20T17:41:54.906Z,31.13
2022-12-20T17:44:24.565Z,30.35
2022-12-20T17:46:53.248Z,31.02
2022-12-20T17:49:20.598Z,30.38
2022-12-20T17:51:48.111Z,31.77
2022-12-20T17:54:38.566Z,30.73
2022-12-20T17:57:21.562Z,29.90
2022-12-20T17:59:51.587Z,30.80
2022-12-20T18:02:25.539Z,30.45
2022-12-20T18:04:53.993Z,32.67
2022-12-20T18:07:29.745Z,31.63
2022-12-20T18:10:03.335Z,30.67
2022-12-20T18:12:37.423Z,29.20
2022-12-20T18:15:09.252Z,30.88
2022-12-20T18:17:38.755Z,30.45
2022-12-20T18:20:09.910Z,28.77
2022-12-20T18:22:49.269Z,27.33
2022-12-20T18:25:25.958Z,27.25
2022-12-20T18:28:04.552Z,27.60
2022-12-20T18:30:38.128Z,27.13
2022-12-20T18:33:14.438Z,27.52
2022-12-20T18:36:11.600Z,27.67
2022-12-20T18:38:42.380Z,27.75
2022-12-20T18:41:14.350Z,25.90
2022-12-20T18:43:41.658Z,27.10
2022-12-20T18:46:19.868Z,26.48
2022-12-20T18:48:47.696Z,25.00
2022-12-20T18:51:20.415Z,25.30
2022-12-20T18:53:49.143Z,26.40
2022-12-20T18:56:21.827Z,25.05
2022-12-20T18:58:52.348Z,26.80
2022-12-20T19:01:28.614Z,27.67
2022-12-20T19:03:56.339Z,28.73
2022-12-20T19:06:23.828Z,27.00
2022-12-20T19:08:51.484Z,30.52
2022-12-20T19:11:24.090Z,28.15
2022-12-20T19:13:52.573Z,30.58
2022-12-20T19:16:22.452Z,30.85
2022-12-20T19:18:50.231Z,30.88
2022-12-20T19:21:24.109Z,28.75
2022-12-20T19:23:57.589Z,29.65
2022-12-20T19:26:30.041Z,29.98
2022-12-20T19:28:57.971Z,27.88
2022-12-20T19:31:31.218Z,28.35
2022-12-20T19:34:04.572Z,27.13
2022-12-20T19:36:37.205Z,27.52
2022-12-20T19:39:08.228Z,33.10
2022-12-20T19:41:36.180Z,30.75
2022-12-20T19:44:05.031Z,29.48
2022-12-20T19:46:32.526Z,29.17
2022-12-20T19:49:00.750Z,31.42
2022-12-20T19:51:29.163Z,33.38
2022-12-20T19:53:59.622Z,27.58
2022-12-20T19:56:30.825Z,27.30
2022-12-20T20:01:28.088Z,27.13
2022-12-20T20:03:57.719Z,27.20
2022-12-20T20:06:25.076Z,26.33
2022-12-20T20:08:52.405Z,26.98
2022-12-20T20:11:21.388Z,24.33
2022-12-20T20:13:48.724Z,25.63
2022-12-20T20:16:21.806Z,24.80
2022-12-20T20:18:50.291Z,27.30
2022-12-20T20:21:21.989Z,31.25
2022-12-20T20:23:51.300Z,27.75
2022-12-20T20:26:22.522Z,27.92
2022-12-20T20:31:18.884Z,28.05
2022-12-20T20:33:46.621Z,26.33
2022-12-20T20:36:16.670Z,26.10
2022-12-20T20:38:44.197Z,29.88
2022-12-20T20:41:12.263Z,29.08
2022-12-20T20:43:39.865Z,29.80
2022-12-20T20:46:09.566Z,31.15
2022-12-20T20:48:37.350Z,31.48
2022-12-20T20:51:05.350Z,30.58
2022-12-20T20:53:34.122Z,31.13
2022-12-20T20:56:03.325Z,26.92
2022-12-20T20:58:31.021Z,27.75
2022-12-20T21:01:00.800Z,27.60
2022-12-20T21:03:30.288Z,28.10
2022-12-20T21:08:45.762Z,30.80
2022-12-20T21:11:13.420Z,31.63
2022-12-20T21:13:40.720Z,31.63
2022-12-20T21:16:13.239Z,30.95
2022-12-20T21:18:40.659Z,30.75
2022-12-20T21:21:10.573Z,27.63
2022-12-20T21:23:39.171Z,29.73
2022-12-20T21:26:07.666Z,27.48
2022-12-20T21:28:35.738Z,29.40
2022-12-20T21:31:05.711Z,27.63
2022-12-20T21:33:33.127Z,28.27
2022-12-20T21:36:06.018Z,27.02
2022-12-20T21:38:33.469Z,26.23
2022-12-20T21:41:12.454Z,27.80
2022-12-20T21:43:39.834Z,26.58
2022-12-20T21:46:11.378Z,25.58
2022-12-20T21:48:39.554Z,29.63
2022-12-20T21:51:18.289Z,26.67
2022-12-20T21:53:54.207Z,29.38
2022-12-20T21:56:22.636Z,27.13
2022-12-20T21:58:50.917Z,28.70
2022-12-20T22:01:21.384Z,27.45
2022-12-20T22:03:53.722Z,27.42
2022-12-20T22:06:21.675Z,27.73
2022-12-20T22:08:48.779Z,26.60
2022-12-20T22:11:18.423Z,26.95
2022-12-20T22:13:46.486Z,27.58
2022-12-20T22:16:21.872Z,24.30
2022-12-20T22:18:50.670Z,27.08
2022-12-20T22:21:19.007Z,27.95
2022-12-20T22:23:46.177Z,27.42
2022-12-20T22:26:22.991Z,27.50
2022-12-20T22:28:52.391Z,26.38
2022-12-20T22:31:20.534Z,26.20
2022-12-20T22:33:48.126Z,30.33
2022-12-20T22:36:16.567Z,27.67
2022-12-20T22:38:43.726Z,29.17
2022-12-20T22:41:15.541Z,26.73
2022-12-20T22:43:44.695Z,26.77
2022-12-20T22:48:59.009Z,27.88
2022-12-20T22:51:27.780Z,27.52
2022-12-20T22:53:58.207Z,24.83
2022-12-20T22:56:26.191Z,25.95
2022-12-20T22:58:53.444Z,26.40
2022-12-20T23:01:21.777Z,29.30
2022-12-20T23:03:50.331Z,26.40
2022-12-20T23:06:21.029Z,27.00
2022-12-20T23:08:49.124Z,26.63
2022-12-20T23:11:45.641Z,27.92
2022-12-20T23:14:40.219Z,26.88
2022-12-20T23:17:13.709Z,25.80
2022-12-20T23:20:06.749Z,25.98
2022-12-20T23:22:46.324Z,26.70
2022-12-20T23:25:19.606Z,27.02
2022-12-20T23:27:50.246Z,25.92
2022-12-20T23:30:24.009Z,28.52
2022-12-20T23:32:54.281Z,25.63
2022-12-20T23:35:25.065Z,26.15
2022-12-20T23:37:53.157Z,26.13
2022-12-20T23:40:27.609Z,26.15
2022-12-20T23:43:05.271Z,26.63
2022-12-20T23:45:36.203Z,24.73
2022-12-20T23:48:13.506Z,25.65
2022-12-20T23:50:51.456Z,25.23
2022-12-20T23:53:22.145Z,26.25
2022-12-20T23:56:03.739Z,23.05
2022-12-20T23:58:38.666Z,26.02
